sensor_id;sensor_type;location;lat;lon;timestamp;P1;durP1;ratioP1;P2;durP2;ratioP2
37931;SDS011;23758;42.640;23.302;2022-08-19T00:01:41;1.80;;;1.70;;
37931;SDS011;23758;42.640;23.302;2022-08-19T00:04:11;2.03;;;1.92;;
37931;SDS011;23758;42.640;23.302;2022-08-19T00:06:38;2.97;;;2.40;;
37931;SDS011;23758;42.640;23.302;2022-08-19T00:09:05;1.90;;;1.80;;
37931;SDS011;23758;42.640;23.302;2022-08-19T00:11:32;1.67;;;1.58;;
37931;SDS011;23758;42.640;23.302;2022-08-19T00:13:59;1.83;;;1.73;;
37931;SDS011;23758;42.640;23.302;2022-08-19T00:16:25;1.77;;;1.67;;
37931;SDS011;23758;42.640;23.302;2022-08-19T00:18:51;1.80;;;1.70;;
37931;SDS011;23758;42.640;23.302;2022-08-19T00:21:16;1.98;;;1.88;;
37931;SDS011;23758;42.640;23.302;2022-08-19T00:23:42;1.70;;;1.60;;
37931;SDS011;23758;42.640;23.302;2022-08-19T00:26:08;1.70;;;1.60;;
37931;SDS011;23758;42.640;23.302;2022-08-19T00:28:35;1.70;;;1.60;;
37931;SDS011;23758;42.640;23.302;2022-08-19T00:31:01;1.80;;;1.70;;
37931;SDS011;23758;42.640;23.302;2022-08-19T00:33:29;1.70;;;1.60;;
37931;SDS011;23758;42.640;23.302;2022-08-19T00:35:57;1.60;;;1.50;;
37931;SDS011;23758;42.640;23.302;2022-08-19T00:38:26;1.90;;;1.80;;
37931;SDS011;23758;42.640;23.302;2022-08-19T00:40:52;1.85;;;1.75;;
37931;SDS011;23758;42.640;23.302;2022-08-19T00:43:21;1.92;;;1.83;;
37931;SDS011;23758;42.640;23.302;2022-08-19T00:45:48;1.88;;;1.77;;
37931;SDS011;23758;42.640;23.302;2022-08-19T00:48:15;1.80;;;1.70;;
37931;SDS011;23758;42.640;23.302;2022-08-19T00:50:42;1.77;;;1.67;;
37931;SDS011;23758;42.640;23.302;2022-08-19T00:53:09;1.70;;;1.60;;
37931;SDS011;23758;42.640;23.302;2022-08-19T00:55:36;1.70;;;1.60;;
37931;SDS011;23758;42.640;23.302;2022-08-19T00:58:04;1.90;;;1.80;;
37931;SDS011;23758;42.640;23.302;2022-08-19T01:00:33;1.83;;;1.73;;
37931;SDS011;23758;42.640;23.302;2022-08-19T01:03:02;1.60;;;1.50;;
37931;SDS011;23758;42.640;23.302;2022-08-19T01:05:32;1.90;;;1.80;;
37931;SDS011;23758;42.640;23.302;2022-08-19T01:07:59;1.70;;;1.60;;
37931;SDS011;23758;42.640;23.302;2022-08-19T01:10:28;2.15;;;2.05;;
37931;SDS011;23758;42.640;23.302;2022-08-19T01:12:56;1.60;;;1.50;;
37931;SDS011;23758;42.640;23.302;2022-08-19T01:15:24;1.70;;;1.60;;
37931;SDS011;23758;42.640;23.302;2022-08-19T01:17:59;1.98;;;1.88;;
37931;SDS011;23758;42.640;23.302;2022-08-19T01:20:25;1.88;;;1.77;;
37931;SDS011;23758;42.640;23.302;2022-08-19T01:25:18;2.42;;;2.22;;
37931;SDS011;23758;42.640;23.302;2022-08-19T01:27:47;1.70;;;1.60;;
37931;SDS011;23758;42.640;23.302;2022-08-19T01:30:15;1.85;;;1.75;;
37931;SDS011;23758;42.640;23.302;2022-08-19T01:32:42;1.80;;;1.70;;
37931;SDS011;23758;42.640;23.302;2022-08-19T01:35:09;2.00;;;1.90;;
37931;SDS011;23758;42.640;23.302;2022-08-19T01:37:43;1.80;;;1.70;;
37931;SDS011;23758;42.640;23.302;2022-08-19T01:40:10;1.90;;;1.80;;
37931;SDS011;23758;42.640;23.302;2022-08-19T01:42:36;2.03;;;1.88;;
37931;SDS011;23758;42.640;23.302;2022-08-19T01:45:02;1.90;;;1.80;;
37931;SDS011;23758;42.640;23.302;2022-08-19T01:47:28;2.38;;;2.17;;
37931;SDS011;23758;42.640;23.302;2022-08-19T01:49:54;2.05;;;1.95;;
37931;SDS011;23758;42.640;23.302;2022-08-19T01:52:19;2.05;;;1.95;;
37931;SDS011;23758;42.640;23.302;2022-08-19T01:54:45;2.13;;;2.03;;
37931;SDS011;23758;42.640;23.302;2022-08-19T01:57:11;2.08;;;1.98;;
37931;SDS011;23758;42.640;23.302;2022-08-19T01:59:37;2.00;;;1.90;;
37931;SDS011;23758;42.640;23.302;2022-08-19T02:02:05;2.05;;;1.95;;
37931;SDS011;23758;42.640;23.302;2022-08-19T02:04:33;2.30;;;2.20;;
37931;SDS011;23758;42.640;23.302;2022-08-19T02:06:59;2.20;;;2.10;;
37931;SDS011;23758;42.640;23.302;2022-08-19T02:09:25;2.20;;;2.10;;
37931;SDS011;23758;42.640;23.302;2022-08-19T02:11:50;2.20;;;2.10;;
37931;SDS011;23758;42.640;23.302;2022-08-19T02:14:16;2.33;;;2.22;;
37931;SDS011;23758;42.640;23.302;2022-08-19T02:16:41;2.13;;;2.03;;
37931;SDS011;23758;42.640;23.302;2022-08-19T02:19:07;2.30;;;2.20;;
37931;SDS011;23758;42.640;23.302;2022-08-19T02:21:32;3.22;;;3.03;;
37931;SDS011;23758;42.640;23.302;2022-08-19T02:23:58;2.80;;;2.58;;
37931;SDS011;23758;42.640;23.302;2022-08-19T02:26:24;2.13;;;2.03;;
37931;SDS011;23758;42.640;23.302;2022-08-19T02:28:51;2.15;;;2.05;;
37931;SDS011;23758;42.640;23.302;2022-08-19T02:31:18;2.03;;;1.92;;
37931;SDS011;23758;42.640;23.302;2022-08-19T02:33:45;2.00;;;1.90;;
37931;SDS011;23758;42.640;23.302;2022-08-19T02:36:12;1.90;;;1.80;;
37931;SDS011;23758;42.640;23.302;2022-08-19T02:38:38;2.13;;;2.03;;
37931;SDS011;23758;42.640;23.302;2022-08-19T02:41:07;1.98;;;1.88;;
37931;SDS011;23758;42.640;23.302;2022-08-19T02:43:40;2.05;;;1.95;;
37931;SDS011;23758;42.640;23.302;2022-08-19T02:46:17;2.03;;;1.92;;
37931;SDS011;23758;42.640;23.302;2022-08-19T02:48:46;2.30;;;2.10;;
37931;SDS011;23758;42.640;23.302;2022-08-19T02:51:24;2.00;;;1.90;;
37931;SDS011;23758;42.640;23.302;2022-08-19T02:53:51;1.90;;;1.80;;
37931;SDS011;23758;42.640;23.302;2022-08-19T02:56:17;2.05;;;1.95;;
37931;SDS011;23758;42.640;23.302;2022-08-19T02:58:43;1.80;;;1.70;;
37931;SDS011;23758;42.640;23.302;2022-08-19T03:01:09;2.17;;;2.03;;
37931;SDS011;23758;42.640;23.302;2022-08-19T03:03:36;1.85;;;1.75;;
37931;SDS011;23758;42.640;23.302;2022-08-19T03:08:35;2.40;;;2.20;;
37931;SDS011;23758;42.640;23.302;2022-08-19T03:11:01;2.00;;;1.90;;
37931;SDS011;23758;42.640;23.302;2022-08-19T03:13:27;2.45;;;2.00;;
37931;SDS011;23758;42.640;23.302;2022-08-19T03:15:53;1.70;;;1.60;;
37931;SDS011;23758;42.640;23.302;2022-08-19T03:18:18;2.00;;;1.90;;
37931;SDS011;23758;42.640;23.302;2022-08-19T03:20:48;1.90;;;1.80;;
37931;SDS011;23758;42.640;23.302;2022-08-19T03:23:15;2.08;;;1.98;;
37931;SDS011;23758;42.640;23.302;2022-08-19T03:25:42;1.90;;;1.80;;
37931;SDS011;23758;42.640;23.302;2022-08-19T03:28:13;1.90;;;1.80;;
37931;SDS011;23758;42.640;23.302;2022-08-19T03:30:40;1.90;;;1.80;;
37931;SDS011;23758;42.640;23.302;2022-08-19T03:33:07;1.80;;;1.70;;
37931;SDS011;23758;42.640;23.302;2022-08-19T03:35:33;2.00;;;1.90;;
37931;SDS011;23758;42.640;23.302;2022-08-19T03:38:01;2.53;;;2.33;;
37931;SDS011;23758;42.640;23.302;2022-08-19T03:40:28;1.83;;;1.73;;
37931;SDS011;23758;42.640;23.302;2022-08-19T03:42:55;2.00;;;1.90;;
37931;SDS011;23758;42.640;23.302;2022-08-19T03:45:21;2.00;;;1.90;;
37931;SDS011;23758;42.640;23.302;2022-08-19T03:47:47;3.90;;;2.17;;
37931;SDS011;23758;42.640;23.302;2022-08-19T03:50:12;2.20;;;2.00;;
37931;SDS011;23758;42.640;23.302;2022-08-19T03:52:38;2.10;;;2.00;;
37931;SDS011;23758;42.640;23.302;2022-08-19T03:55:04;2.70;;;2.50;;
37931;SDS011;23758;42.640;23.302;2022-08-19T03:57:30;2.20;;;2.00;;
37931;SDS011;23758;42.640;23.302;2022-08-19T03:59:57;2.20;;;2.00;;
37931;SDS011;23758;42.640;23.302;2022-08-19T04:02:22;1.95;;;1.85;;
37931;SDS011;23758;42.640;23.302;2022-08-19T04:04:48;2.00;;;1.90;;
37931;SDS011;23758;42.640;23.302;2022-08-19T04:07:14;1.90;;;1.80;;
37931;SDS011;23758;42.640;23.302;2022-08-19T04:09:46;1.98;;;1.88;;
37931;SDS011;23758;42.640;23.302;2022-08-19T04:12:12;2.22;;;2.08;;
37931;SDS011;23758;42.640;23.302;2022-08-19T04:14:38;1.90;;;1.80;;
37931;SDS011;23758;42.640;23.302;2022-08-19T04:17:04;2.45;;;2.25;;
37931;SDS011;23758;42.640;23.302;2022-08-19T04:19:30;1.80;;;1.70;;
37931;SDS011;23758;42.640;23.302;2022-08-19T04:21:56;2.10;;;2.00;;
37931;SDS011;23758;42.640;23.302;2022-08-19T04:24:23;1.83;;;1.73;;
37931;SDS011;23758;42.640;23.302;2022-08-19T04:26:49;1.80;;;1.70;;
37931;SDS011;23758;42.640;23.302;2022-08-19T04:29:22;1.90;;;1.80;;
37931;SDS011;23758;42.640;23.302;2022-08-19T04:31:49;1.70;;;1.60;;
37931;SDS011;23758;42.640;23.302;2022-08-19T04:34:17;1.90;;;1.80;;
37931;SDS011;23758;42.640;23.302;2022-08-19T04:36:47;4.40;;;2.17;;
37931;SDS011;23758;42.640;23.302;2022-08-19T04:39:17;4.90;;;2.25;;
37931;SDS011;23758;42.640;23.302;2022-08-19T04:41:45;2.38;;;2.17;;
37931;SDS011;23758;42.640;23.302;2022-08-19T04:44:33;2.03;;;1.88;;
37931;SDS011;23758;42.640;23.302;2022-08-19T04:47:00;1.67;;;1.58;;
37931;SDS011;23758;42.640;23.302;2022-08-19T04:49:25;1.70;;;1.60;;
37931;SDS011;23758;42.640;23.302;2022-08-19T04:51:52;1.70;;;1.60;;
37931;SDS011;23758;42.640;23.302;2022-08-19T04:54:19;1.75;;;1.45;;
37931;SDS011;23758;42.640;23.302;2022-08-19T04:56:47;1.20;;;1.20;;
37931;SDS011;23758;42.640;23.302;2022-08-19T04:59:19;1.50;;;1.40;;
37931;SDS011;23758;42.640;23.302;2022-08-19T05:01:46;1.60;;;1.50;;
37931;SDS011;23758;42.640;23.302;2022-08-19T05:04:15;1.40;;;1.27;;
37931;SDS011;23758;42.640;23.302;2022-08-19T05:06:42;1.13;;;1.10;;
37931;SDS011;23758;42.640;23.302;2022-08-19T05:09:08;0.93;;;0.93;;
37931;SDS011;23758;42.640;23.302;2022-08-19T05:11:34;0.88;;;0.88;;
37931;SDS011;23758;42.640;23.302;2022-08-19T05:14:04;1.00;;;1.00;;
37931;SDS011;23758;42.640;23.302;2022-08-19T05:16:30;1.63;;;1.17;;
37931;SDS011;23758;42.640;23.302;2022-08-19T05:18:56;1.05;;;1.05;;
37931;SDS011;23758;42.640;23.302;2022-08-19T05:21:40;1.30;;;1.20;;
37931;SDS011;23758;42.640;23.302;2022-08-19T05:24:26;1.45;;;1.35;;
37931;SDS011;23758;42.640;23.302;2022-08-19T05:26:52;1.10;;;1.10;;
37931;SDS011;23758;42.640;23.302;2022-08-19T05:29:21;1.17;;;1.13;;
37931;SDS011;23758;42.640;23.302;2022-08-19T05:31:48;1.60;;;1.50;;
37931;SDS011;23758;42.640;23.302;2022-08-19T05:34:14;2.17;;;1.60;;
37931;SDS011;23758;42.640;23.302;2022-08-19T05:36:41;1.60;;;1.50;;
37931;SDS011;23758;42.640;23.302;2022-08-19T05:39:09;1.90;;;1.55;;
37931;SDS011;23758;42.640;23.302;2022-08-19T05:41:41;1.83;;;1.58;;
37931;SDS011;23758;42.640;23.302;2022-08-19T05:44:07;1.45;;;1.35;;
37931;SDS011;23758;42.640;23.302;2022-08-19T05:46:34;1.75;;;1.65;;
37931;SDS011;23758;42.640;23.302;2022-08-19T05:49:02;1.40;;;1.30;;
37931;SDS011;23758;42.640;23.302;2022-08-19T05:51:29;1.73;;;1.63;;
37931;SDS011;23758;42.640;23.302;2022-08-19T05:53:54;1.80;;;1.55;;
37931;SDS011;23758;42.640;23.302;2022-08-19T05:56:20;1.30;;;1.25;;
37931;SDS011;23758;42.640;23.302;2022-08-19T05:58:45;1.88;;;1.75;;
37931;SDS011;23758;42.640;23.302;2022-08-19T06:01:12;1.50;;;1.40;;
37931;SDS011;23758;42.640;23.302;2022-08-19T06:03:43;1.67;;;1.58;;
37931;SDS011;23758;42.640;23.302;2022-08-19T06:06:10;1.50;;;1.40;;
37931;SDS011;23758;42.640;23.302;2022-08-19T06:08:37;1.75;;;1.65;;
37931;SDS011;23758;42.640;23.302;2022-08-19T06:11:17;1.50;;;1.40;;
37931;SDS011;23758;42.640;23.302;2022-08-19T06:13:43;2.35;;;1.67;;
37931;SDS011;23758;42.640;23.302;2022-08-19T06:16:12;2.45;;;2.08;;
37931;SDS011;23758;42.640;23.302;2022-08-19T06:18:44;1.60;;;1.50;;
37931;SDS011;23758;42.640;23.302;2022-08-19T06:21:10;1.75;;;1.65;;
37931;SDS011;23758;42.640;23.302;2022-08-19T06:23:35;1.50;;;1.40;;
37931;SDS011;23758;42.640;23.302;2022-08-19T06:26:01;1.65;;;1.55;;
37931;SDS011;23758;42.640;23.302;2022-08-19T06:28:26;1.80;;;1.70;;
37931;SDS011;23758;42.640;23.302;2022-08-19T06:30:52;1.40;;;1.30;;
37931;SDS011;23758;42.640;23.302;2022-08-19T06:33:17;2.13;;;1.95;;
37931;SDS011;23758;42.640;23.302;2022-08-19T06:35:43;1.83;;;1.73;;
37931;SDS011;23758;42.640;23.302;2022-08-19T06:38:08;1.58;;;1.48;;
37931;SDS011;23758;42.640;23.302;2022-08-19T06:40:34;1.92;;;1.73;;
37931;SDS011;23758;42.640;23.302;2022-08-19T06:43:01;3.97;;;2.58;;
37931;SDS011;23758;42.640;23.302;2022-08-19T06:45:27;1.67;;;1.58;;
37931;SDS011;23758;42.640;23.302;2022-08-19T06:47:53;1.83;;;1.73;;
37931;SDS011;23758;42.640;23.302;2022-08-19T06:50:22;1.50;;;1.40;;
37931;SDS011;23758;42.640;23.302;2022-08-19T06:52:48;1.50;;;1.40;;
37931;SDS011;23758;42.640;23.302;2022-08-19T06:55:14;1.58;;;1.48;;
37931;SDS011;23758;42.640;23.302;2022-08-19T06:57:40;8.10;;;1.48;;
37931;SDS011;23758;42.640;23.302;2022-08-19T07:00:08;1.40;;;1.30;;
37931;SDS011;23758;42.640;23.302;2022-08-19T07:02:40;1.23;;;1.20;;
37931;SDS011;23758;42.640;23.302;2022-08-19T07:05:09;1.58;;;1.48;;
37931;SDS011;23758;42.640;23.302;2022-08-19T07:07:34;1.40;;;1.30;;
37931;SDS011;23758;42.640;23.302;2022-08-19T07:10:00;1.50;;;1.40;;
37931;SDS011;23758;42.640;23.302;2022-08-19T07:12:29;1.85;;;1.38;;
37931;SDS011;23758;42.640;23.302;2022-08-19T07:14:58;1.13;;;1.13;;
37931;SDS011;23758;42.640;23.302;2022-08-19T07:17:23;2.30;;;1.75;;
37931;SDS011;23758;42.640;23.302;2022-08-19T07:19:49;1.75;;;1.63;;
37931;SDS011;23758;42.640;23.302;2022-08-19T07:22:15;1.27;;;1.20;;
37931;SDS011;23758;42.640;23.302;2022-08-19T07:24:41;1.45;;;1.35;;
37931;SDS011;23758;42.640;23.302;2022-08-19T07:27:06;1.58;;;1.48;;
37931;SDS011;23758;42.640;23.302;2022-08-19T07:29:33;1.98;;;1.60;;
37931;SDS011;23758;42.640;23.302;2022-08-19T07:32:00;1.50;;;1.40;;
37931;SDS011;23758;42.640;23.302;2022-08-19T07:34:26;1.30;;;1.20;;
37931;SDS011;23758;42.640;23.302;2022-08-19T07:36:54;2.05;;;1.95;;
37931;SDS011;23758;42.640;23.302;2022-08-19T07:39:24;1.70;;;1.60;;
37931;SDS011;23758;42.640;23.302;2022-08-19T07:41:51;1.85;;;1.73;;
37931;SDS011;23758;42.640;23.302;2022-08-19T07:44:17;1.52;;;1.42;;
37931;SDS011;23758;42.640;23.302;2022-08-19T07:46:46;1.38;;;1.27;;
37931;SDS011;23758;42.640;23.302;2022-08-19T07:49:14;1.40;;;1.30;;
37931;SDS011;23758;42.640;23.302;2022-08-19T07:51:44;1.58;;;1.48;;
37931;SDS011;23758;42.640;23.302;2022-08-19T07:54:12;1.42;;;1.33;;
37931;SDS011;23758;42.640;23.302;2022-08-19T07:56:37;1.60;;;1.50;;
37931;SDS011;23758;42.640;23.302;2022-08-19T07:59:03;5.00;;;2.15;;
37931;SDS011;23758;42.640;23.302;2022-08-19T08:01:29;1.00;;;1.00;;
37931;SDS011;23758;42.640;23.302;2022-08-19T08:03:56;1.30;;;1.20;;
37931;SDS011;23758;42.640;23.302;2022-08-19T08:06:41;1.73;;;1.60;;
37931;SDS011;23758;42.640;23.302;2022-08-19T08:09:27;1.30;;;1.20;;
37931;SDS011;23758;42.640;23.302;2022-08-19T08:11:58;1.10;;;1.10;;
37931;SDS011;23758;42.640;23.302;2022-08-19T08:14:33;2.40;;;1.67;;
37931;SDS011;23758;42.640;23.302;2022-08-19T08:17:00;1.55;;;1.45;;
37931;SDS011;23758;42.640;23.302;2022-08-19T08:19:27;1.58;;;1.48;;
37931;SDS011;23758;42.640;23.302;2022-08-19T08:21:54;1.45;;;1.33;;
37931;SDS011;23758;42.640;23.302;2022-08-19T08:24:21;1.58;;;1.48;;
37931;SDS011;23758;42.640;23.302;2022-08-19T08:26:46;1.40;;;1.30;;
37931;SDS011;23758;42.640;23.302;2022-08-19T08:29:12;1.17;;;1.17;;
37931;SDS011;23758;42.640;23.302;2022-08-19T08:31:42;1.30;;;1.20;;
37931;SDS011;23758;42.640;23.302;2022-08-19T08:34:09;1.10;;;1.10;;
37931;SDS011;23758;42.640;23.302;2022-08-19T08:36:39;1.52;;;1.42;;
37931;SDS011;23758;42.640;23.302;2022-08-19T08:39:09;1.38;;;1.27;;
37931;SDS011;23758;42.640;23.302;2022-08-19T08:44:15;1.20;;;1.10;;
37931;SDS011;23758;42.640;23.302;2022-08-19T08:46:47;1.02;;;1.02;;
37931;SDS011;23758;42.640;23.302;2022-08-19T08:52:04;1.02;;;1.02;;
37931;SDS011;23758;42.640;23.302;2022-08-19T08:54:36;1.00;;;1.00;;
37931;SDS011;23758;42.640;23.302;2022-08-19T08:57:15;1.20;;;1.15;;
37931;SDS011;23758;42.640;23.302;2022-08-19T08:59:45;1.58;;;1.48;;
37931;SDS011;23758;42.640;23.302;2022-08-19T09:02:15;1.10;;;1.10;;
37931;SDS011;23758;42.640;23.302;2022-08-19T09:04:42;1.20;;;1.20;;
37931;SDS011;23758;42.640;23.302;2022-08-19T09:09:45;2.13;;;1.30;;
37931;SDS011;23758;42.640;23.302;2022-08-19T09:12:36;1.40;;;1.30;;
37931;SDS011;23758;42.640;23.302;2022-08-19T09:15:10;1.30;;;1.20;;
37931;SDS011;23758;42.640;23.302;2022-08-19T09:17:38;1.20;;;1.20;;
37931;SDS011;23758;42.640;23.302;2022-08-19T09:20:05;1.10;;;1.10;;
37931;SDS011;23758;42.640;23.302;2022-08-19T09:22:38;1.20;;;1.10;;
37931;SDS011;23758;42.640;23.302;2022-08-19T09:25:05;1.20;;;1.20;;
37931;SDS011;23758;42.640;23.302;2022-08-19T09:27:35;3.58;;;1.83;;
37931;SDS011;23758;42.640;23.302;2022-08-19T09:30:02;2.38;;;1.65;;
37931;SDS011;23758;42.640;23.302;2022-08-19T09:32:30;1.20;;;1.10;;
37931;SDS011;23758;42.640;23.302;2022-08-19T09:34:55;4.13;;;1.27;;
37931;SDS011;23758;42.640;23.302;2022-08-19T09:37:23;1.30;;;1.20;;
37931;SDS011;23758;42.640;23.302;2022-08-19T09:39:49;1.40;;;1.30;;
37931;SDS011;23758;42.640;23.302;2022-08-19T09:42:15;1.20;;;1.10;;
37931;SDS011;23758;42.640;23.302;2022-08-19T09:44:41;1.25;;;1.20;;
37931;SDS011;23758;42.640;23.302;2022-08-19T09:47:08;1.40;;;1.30;;
37931;SDS011;23758;42.640;23.302;2022-08-19T09:49:35;1.05;;;1.05;;
37931;SDS011;23758;42.640;23.302;2022-08-19T09:52:00;1.40;;;1.30;;
37931;SDS011;23758;42.640;23.302;2022-08-19T09:54:26;1.30;;;1.20;;
37931;SDS011;23758;42.640;23.302;2022-08-19T09:56:53;1.42;;;1.33;;
37931;SDS011;23758;42.640;23.302;2022-08-19T09:59:18;1.10;;;1.10;;
37931;SDS011;23758;42.640;23.302;2022-08-19T10:01:44;0.95;;;0.95;;
37931;SDS011;23758;42.640;23.302;2022-08-19T10:04:09;2.00;;;1.30;;
37931;SDS011;23758;42.640;23.302;2022-08-19T10:06:36;2.33;;;2.13;;
37931;SDS011;23758;42.640;23.302;2022-08-19T10:09:03;1.13;;;1.13;;
37931;SDS011;23758;42.640;23.302;2022-08-19T10:11:35;30.52;;;1.90;;
37931;SDS011;23758;42.640;23.302;2022-08-19T10:14:02;1.40;;;1.30;;
37931;SDS011;23758;42.640;23.302;2022-08-19T10:16:30;1.20;;;1.10;;
37931;SDS011;23758;42.640;23.302;2022-08-19T10:18:56;1.00;;;1.00;;
37931;SDS011;23758;42.640;23.302;2022-08-19T10:21:26;3.58;;;1.83;;
37931;SDS011;23758;42.640;23.302;2022-08-19T10:26:24;1.42;;;1.33;;
37931;SDS011;23758;42.640;23.302;2022-08-19T10:28:51;1.42;;;1.33;;
37931;SDS011;23758;42.640;23.302;2022-08-19T10:31:18;1.60;;;1.50;;
37931;SDS011;23758;42.640;23.302;2022-08-19T10:33:45;1.30;;;1.20;;
37931;SDS011;23758;42.640;23.302;2022-08-19T10:36:16;1.20;;;1.15;;
37931;SDS011;23758;42.640;23.302;2022-08-19T10:38:44;1.00;;;1.00;;
37931;SDS011;23758;42.640;23.302;2022-08-19T10:41:13;1.45;;;1.35;;
37931;SDS011;23758;42.640;23.302;2022-08-19T10:43:40;1.10;;;1.10;;
37931;SDS011;23758;42.640;23.302;2022-08-19T10:46:11;1.10;;;1.10;;
37931;SDS011;23758;42.640;23.302;2022-08-19T10:48:38;3.85;;;1.88;;
37931;SDS011;23758;42.640;23.302;2022-08-19T10:51:04;1.20;;;1.20;;
37931;SDS011;23758;42.640;23.302;2022-08-19T10:53:48;1.00;;;1.00;;
37931;SDS011;23758;42.640;23.302;2022-08-19T10:56:14;1.08;;;1.08;;
37931;SDS011;23758;42.640;23.302;2022-08-19T10:58:58;1.38;;;1.27;;
37931;SDS011;23758;42.640;23.302;2022-08-19T11:01:25;1.00;;;1.00;;
37931;SDS011;23758;42.640;23.302;2022-08-19T11:03:51;1.08;;;1.00;;
37931;SDS011;23758;42.640;23.302;2022-08-19T11:06:17;1.20;;;1.10;;
37931;SDS011;23758;42.640;23.302;2022-08-19T11:08:44;1.00;;;1.00;;
37931;SDS011;23758;42.640;23.302;2022-08-19T11:11:11;2.92;;;1.35;;
37931;SDS011;23758;42.640;23.302;2022-08-19T11:13:37;1.27;;;1.17;;
37931;SDS011;23758;42.640;23.302;2022-08-19T11:16:12;1.00;;;1.00;;
37931;SDS011;23758;42.640;23.302;2022-08-19T11:18:40;1.52;;;1.42;;
37931;SDS011;23758;42.640;23.302;2022-08-19T11:21:21;1.00;;;1.00;;
37931;SDS011;23758;42.640;23.302;2022-08-19T11:23:49;0.93;;;0.93;;
37931;SDS011;23758;42.640;23.302;2022-08-19T11:26:16;1.00;;;1.00;;
37931;SDS011;23758;42.640;23.302;2022-08-19T11:28:42;1.10;;;1.10;;
37931;SDS011;23758;42.640;23.302;2022-08-19T11:31:18;1.27;;;1.13;;
37931;SDS011;23758;42.640;23.302;2022-08-19T11:33:45;1.05;;;1.05;;
37931;SDS011;23758;42.640;23.302;2022-08-19T11:36:11;1.00;;;1.00;;
37931;SDS011;23758;42.640;23.302;2022-08-19T11:38:37;1.13;;;1.10;;
37931;SDS011;23758;42.640;23.302;2022-08-19T11:41:04;0.80;;;0.80;;
37931;SDS011;23758;42.640;23.302;2022-08-19T11:43:32;1.00;;;1.00;;
37931;SDS011;23758;42.640;23.302;2022-08-19T11:45:58;2.15;;;1.40;;
37931;SDS011;23758;42.640;23.302;2022-08-19T11:48:25;1.25;;;1.15;;
37931;SDS011;23758;42.640;23.302;2022-08-19T11:50:51;1.23;;;1.15;;
37931;SDS011;23758;42.640;23.302;2022-08-19T11:53:19;1.20;;;1.10;;
37931;SDS011;23758;42.640;23.302;2022-08-19T11:55:45;1.00;;;1.00;;
37931;SDS011;23758;42.640;23.302;2022-08-19T11:58:12;1.30;;;1.20;;
37931;SDS011;23758;42.640;23.302;2022-08-19T12:00:39;0.80;;;0.80;;
37931;SDS011;23758;42.640;23.302;2022-08-19T12:03:04;1.00;;;0.93;;
37931;SDS011;23758;42.640;23.302;2022-08-19T12:05:30;0.80;;;0.80;;
37931;SDS011;23758;42.640;23.302;2022-08-19T12:07:55;1.10;;;1.00;;
37931;SDS011;23758;42.640;23.302;2022-08-19T12:10:21;0.70;;;0.70;;
37931;SDS011;23758;42.640;23.302;2022-08-19T12:12:47;1.05;;;1.00;;
37931;SDS011;23758;42.640;23.302;2022-08-19T12:15:13;0.70;;;0.70;;
37931;SDS011;23758;42.640;23.302;2022-08-19T12:17:39;0.70;;;0.70;;
37931;SDS011;23758;42.640;23.302;2022-08-19T12:20:07;0.82;;;0.82;;
37931;SDS011;23758;42.640;23.302;2022-08-19T12:22:35;12.30;;;1.23;;
37931;SDS011;23758;42.640;23.302;2022-08-19T12:25:02;0.70;;;0.70;;
37931;SDS011;23758;42.640;23.302;2022-08-19T12:27:28;4.88;;;1.02;;
37931;SDS011;23758;42.640;23.302;2022-08-19T12:29:54;0.60;;;0.60;;
37931;SDS011;23758;42.640;23.302;2022-08-19T12:32:19;0.82;;;0.75;;
37931;SDS011;23758;42.640;23.302;2022-08-19T12:34:46;0.85;;;0.85;;
37931;SDS011;23758;42.640;23.302;2022-08-19T12:37:12;1.00;;;1.00;;
37931;SDS011;23758;42.640;23.302;2022-08-19T12:39:39;1.98;;;1.27;;
37931;SDS011;23758;42.640;23.302;2022-08-19T12:42:07;1.02;;;1.02;;
37931;SDS011;23758;42.640;23.302;2022-08-19T12:44:34;0.80;;;0.80;;
37931;SDS011;23758;42.640;23.302;2022-08-19T12:47:01;0.80;;;0.80;;
37931;SDS011;23758;42.640;23.302;2022-08-19T12:49:28;1.00;;;1.00;;
37931;SDS011;23758;42.640;23.302;2022-08-19T12:51:54;0.90;;;0.90;;
37931;SDS011;23758;42.640;23.302;2022-08-19T12:54:19;1.20;;;1.10;;
37931;SDS011;23758;42.640;23.302;2022-08-19T12:56:45;1.15;;;1.15;;
37931;SDS011;23758;42.640;23.302;2022-08-19T12:59:13;1.17;;;1.08;;
37931;SDS011;23758;42.640;23.302;2022-08-19T13:01:40;0.80;;;0.80;;
37931;SDS011;23758;42.640;23.302;2022-08-19T13:04:06;4.75;;;1.50;;
37931;SDS011;23758;42.640;23.302;2022-08-19T13:06:32;1.45;;;1.17;;
37931;SDS011;23758;42.640;23.302;2022-08-19T13:08:58;1.08;;;0.98;;
37931;SDS011;23758;42.640;23.302;2022-08-19T13:11:23;1.73;;;1.25;;
37931;SDS011;23758;42.640;23.302;2022-08-19T13:13:50;1.35;;;1.20;;
37931;SDS011;23758;42.640;23.302;2022-08-19T13:16:19;0.90;;;0.90;;
37931;SDS011;23758;42.640;23.302;2022-08-19T13:18:46;1.17;;;1.10;;
37931;SDS011;23758;42.640;23.302;2022-08-19T13:21:12;1.08;;;1.08;;
37931;SDS011;23758;42.640;23.302;2022-08-19T13:23:40;1.42;;;1.30;;
37931;SDS011;23758;42.640;23.302;2022-08-19T13:26:07;1.15;;;1.08;;
37931;SDS011;23758;42.640;23.302;2022-08-19T13:28:33;1.10;;;1.10;;
37931;SDS011;23758;42.640;23.302;2022-08-19T13:31:30;1.20;;;1.10;;
37931;SDS011;23758;42.640;23.302;2022-08-19T13:34:16;1.00;;;1.00;;
37931;SDS011;23758;42.640;23.302;2022-08-19T13:36:43;1.10;;;1.10;;
37931;SDS011;23758;42.640;23.302;2022-08-19T13:39:08;1.05;;;1.05;;
37931;SDS011;23758;42.640;23.302;2022-08-19T13:41:35;1.05;;;1.02;;
37931;SDS011;23758;42.640;23.302;2022-08-19T13:44:07;0.95;;;0.95;;
37931;SDS011;23758;42.640;23.302;2022-08-19T13:46:33;1.10;;;1.10;;
37931;SDS011;23758;42.640;23.302;2022-08-19T13:48:59;1.30;;;1.20;;
37931;SDS011;23758;42.640;23.302;2022-08-19T13:51:24;1.50;;;1.35;;
37931;SDS011;23758;42.640;23.302;2022-08-19T13:53:50;1.25;;;1.15;;
37931;SDS011;23758;42.640;23.302;2022-08-19T13:56:16;1.30;;;1.20;;
37931;SDS011;23758;42.640;23.302;2022-08-19T13:58:44;1.33;;;1.23;;
37931;SDS011;23758;42.640;23.302;2022-08-19T14:01:10;1.13;;;1.08;;
37931;SDS011;23758;42.640;23.302;2022-08-19T14:03:36;1.73;;;1.15;;
37931;SDS011;23758;42.640;23.302;2022-08-19T14:06:01;1.00;;;1.00;;
37931;SDS011;23758;42.640;23.302;2022-08-19T14:08:27;1.33;;;1.23;;
37931;SDS011;23758;42.640;23.302;2022-08-19T14:10:56;0.90;;;0.90;;
37931;SDS011;23758;42.640;23.302;2022-08-19T14:13:22;1.00;;;1.00;;
37931;SDS011;23758;42.640;23.302;2022-08-19T14:15:48;1.10;;;1.10;;
37931;SDS011;23758;42.640;23.302;2022-08-19T14:18:15;0.90;;;0.90;;
37931;SDS011;23758;42.640;23.302;2022-08-19T14:20:42;1.10;;;1.10;;
37931;SDS011;23758;42.640;23.302;2022-08-19T14:23:07;1.33;;;1.23;;
37931;SDS011;23758;42.640;23.302;2022-08-19T14:25:33;1.63;;;1.42;;
37931;SDS011;23758;42.640;23.302;2022-08-19T14:27:59;1.20;;;1.10;;
37931;SDS011;23758;42.640;23.302;2022-08-19T14:30:29;1.30;;;1.10;;
37931;SDS011;23758;42.640;23.302;2022-08-19T14:32:57;1.50;;;1.40;;
37931;SDS011;23758;42.640;23.302;2022-08-19T14:35:24;1.05;;;1.05;;
37931;SDS011;23758;42.640;23.302;2022-08-19T14:37:51;1.10;;;1.10;;
37931;SDS011;23758;42.640;23.302;2022-08-19T14:40:20;1.05;;;1.05;;
37931;SDS011;23758;42.640;23.302;2022-08-19T14:42:50;1.00;;;1.00;;
37931;SDS011;23758;42.640;23.302;2022-08-19T14:45:24;1.30;;;1.20;;
37931;SDS011;23758;42.640;23.302;2022-08-19T14:47:53;3.00;;;1.48;;
37931;SDS011;23758;42.640;23.302;2022-08-19T14:50:19;1.38;;;1.27;;
37931;SDS011;23758;42.640;23.302;2022-08-19T14:52:48;1.17;;;1.17;;